Morgan Hill, California
Current Conditions -  °F | °C
As of 4:15 PM on Friday 19 Dec 2014 (Local Time) from KE16 Reporting Station
Light Rain Light Rain  
Wind Chill: 54°   Ceiling: 2300
Heat Index: 54°   Visibility: 3mi
Dew Point: 54°   Wind: 6mph
Humidity: 100%   Direction: 160°SSE
Pressure: 30.17"   Gusts: NA
Location:  37.13°N, 121.66°W
Report Text: KE16 200015Z AUTO 16005KT 3SM -RA BKN023 BKN030 OVC044 12/12 A3017 RMK AO2 P0002
Loading
Personal Weather Stations






























Interactive Weather Map New forecast layout! Learn more

10-Day Weather Forecast

Advertisements
Track Severe Weather on mobile